createdAt,value
2022-08-26T00:00:04.531Z,101394.56
2022-08-26T00:02:34.325Z,101394.59
2022-08-26T00:05:04.088Z,101388.34
2022-08-26T00:07:34.177Z,101391.09
2022-08-26T00:10:03.998Z,101397.34
2022-08-26T00:12:37.485Z,101395.59
2022-08-26T00:15:13.557Z,101394.72
2022-08-26T00:17:44.017Z,101401.00
2022-08-26T00:20:16.934Z,101402.88
2022-08-26T00:22:46.732Z,101402.03
2022-08-26T00:25:16.824Z,101405.66
2022-08-26T00:27:47.932Z,101400.34
2022-08-26T00:30:24.091Z,101398.59
2022-08-26T00:32:54.420Z,101399.50
2022-08-26T00:35:24.688Z,101394.16
2022-08-26T00:37:58.064Z,101397.75
2022-08-26T00:40:32.983Z,101407.63
2022-08-26T00:43:03.869Z,101411.22
2022-08-26T00:45:48.443Z,101413.03
2022-08-26T00:48:20.842Z,101408.56
2022-08-26T00:50:55.918Z,101412.19
2022-08-26T00:53:28.696Z,101417.53
2022-08-26T00:56:02.808Z,101408.56
2022-08-26T00:58:35.195Z,101409.53
2022-08-26T01:01:08.418Z,101402.38
2022-08-26T01:03:40.371Z,101410.47
2022-08-26T01:06:13.040Z,101414.94
2022-08-26T01:08:43.348Z,101408.69
2022-08-26T01:11:14.088Z,101412.28
2022-08-26T01:13:44.305Z,101408.75
2022-08-26T01:16:19.022Z,101406.16
2022-08-26T01:18:50.723Z,101416.91
2022-08-26T01:21:29.448Z,101412.47
2022-08-26T01:24:02.933Z,101413.34
2022-08-26T01:26:36.019Z,101413.34
2022-08-26T01:29:10.473Z,101412.47
2022-08-26T01:31:45.279Z,101413.34
2022-08-26T01:34:22.814Z,101408.00
2022-08-26T01:36:54.420Z,101413.34
2022-08-26T01:39:27.882Z,101413.34
2022-08-26T01:42:02.913Z,101413.34
2022-08-26T01:44:37.016Z,101418.72
2022-08-26T01:47:07.912Z,101417.81
2022-08-26T01:49:39.951Z,101424.06
2022-08-26T01:52:11.481Z,101420.50
2022-08-26T01:54:46.334Z,101426.78
2022-08-26T01:57:21.635Z,101430.38
2022-08-26T01:59:55.793Z,101428.59
2022-08-26T02:02:26.954Z,101428.59
2022-08-26T02:05:00.211Z,101426.81
2022-08-26T02:07:30.853Z,101429.50
2022-08-26T02:10:07.112Z,101426.84
2022-08-26T02:12:37.244Z,101425.94
2022-08-26T02:15:11.150Z,101426.88
2022-08-26T02:17:43.748Z,101434.03
2022-08-26T02:20:15.297Z,101427.78
2022-08-26T02:22:45.389Z,101430.47
2022-08-26T02:25:25.639Z,101418.91
2022-08-26T02:27:56.880Z,101423.38
2022-08-26T02:30:29.513Z,101433.22
2022-08-26T02:33:04.035Z,101431.47
2022-08-26T02:35:36.427Z,101436.81
2022-08-26T02:38:09.836Z,101433.28
2022-08-26T02:40:44.783Z,101428.84
2022-08-26T02:43:15.196Z,101419.03
2022-08-26T02:45:46.073Z,101418.13
2022-08-26T02:48:19.615Z,101409.16
2022-08-26T02:50:49.899Z,101420.78
2022-08-26T02:53:25.058Z,101410.09
2022-08-26T02:55:58.378Z,101403.88
2022-08-26T02:58:29.577Z,101411.94
2022-08-26T03:00:59.662Z,101419.13
2022-08-26T03:03:32.082Z,101405.75
2022-08-26T03:06:02.373Z,101412.94
2022-08-26T03:08:32.144Z,101423.69
2022-08-26T03:11:04.468Z,101435.31
2022-08-26T03:13:35.882Z,101416.56
2022-08-26T03:16:06.465Z,101421.03
2022-08-26T03:18:36.612Z,101421.91
2022-08-26T03:21:09.035Z,101426.34
2022-08-26T03:23:38.727Z,101427.25
2022-08-26T03:26:14.675Z,101424.56
2022-08-26T03:29:04.879Z,101421.91
2022-08-26T03:31:32.093Z,101427.25
2022-08-26T03:34:02.778Z,101430.84
2022-08-26T03:36:32.988Z,101433.50
2022-08-26T03:39:04.860Z,101431.75
2022-08-26T03:41:37.813Z,101430.00
2022-08-26T03:44:08.936Z,101430.91
2022-08-26T03:46:39.652Z,101429.13
2022-08-26T03:49:10.443Z,101437.16
2022-08-26T03:51:40.631Z,101426.47
2022-08-26T03:54:12.503Z,101421.13
2022-08-26T03:56:46.621Z,101422.91
2022-08-26T03:59:16.634Z,101429.13
2022-08-26T04:01:46.476Z,101430.03
2022-08-26T04:04:18.317Z,101432.69
2022-08-26T04:06:53.234Z,101422.91
2022-08-26T04:09:23.858Z,101430.94
2022-08-26T04:11:58.732Z,101425.59
2022-08-26T04:14:31.337Z,101427.38
2022-08-26T04:17:04.990Z,101421.16
2022-08-26T04:19:35.949Z,101417.56
2022-08-26T04:22:05.752Z,101426.50
2022-08-26T04:24:36.381Z,101430.06
2022-08-26T04:27:08.990Z,101422.06
2022-08-26T04:29:39.195Z,101427.44
2022-08-26T04:32:09.392Z,101425.66
2022-08-26T04:34:40.623Z,101428.34
2022-08-26T04:37:11.126Z,101435.47
2022-08-26T04:39:41.197Z,101431.91
2022-08-26T04:42:14.018Z,101437.25
2022-08-26T04:44:43.702Z,101430.13
2022-08-26T04:47:13.428Z,101427.41
2022-08-26T04:49:43.825Z,101421.19
2022-08-26T04:52:13.541Z,101430.09
2022-08-26T04:54:43.249Z,101429.22
2022-08-26T04:57:16.272Z,101429.22
2022-08-26T04:59:46.011Z,101424.75
2022-08-26T05:02:15.846Z,101424.75
2022-08-26T05:04:45.655Z,101428.34
2022-08-26T05:07:15.375Z,101433.69
2022-08-26T05:09:47.663Z,101426.56
2022-08-26T05:12:20.004Z,101426.56
2022-08-26T05:14:49.974Z,101419.41
2022-08-26T05:17:19.683Z,101427.44
2022-08-26T05:19:50.746Z,101418.53
2022-08-26T05:22:20.483Z,101414.94
2022-08-26T05:24:50.227Z,101410.50
2022-08-26T05:27:22.555Z,101420.34
2022-08-26T05:29:54.654Z,101422.13
2022-08-26T05:32:24.493Z,101420.31
2022-08-26T05:34:57.221Z,101410.50
2022-08-26T05:37:28.359Z,101421.22
2022-08-26T05:39:58.231Z,101429.25
2022-08-26T05:42:31.136Z,101433.72
2022-08-26T05:45:00.866Z,101439.94
2022-08-26T05:47:30.626Z,101444.38
2022-08-26T05:50:00.744Z,101443.50
2022-08-26T05:52:30.455Z,101454.19
2022-08-26T05:55:00.492Z,101453.31
2022-08-26T05:57:37.462Z,101447.94
2022-08-26T06:00:11.500Z,101462.25
2022-08-26T06:02:41.552Z,101472.03
2022-08-26T06:05:12.002Z,101479.19
2022-08-26T06:07:54.136Z,101484.53
2022-08-26T06:10:32.839Z,101493.47
2022-08-26T06:13:11.502Z,101497.91
2022-08-26T06:15:46.533Z,101499.69
2022-08-26T06:18:18.179Z,101505.94
2022-08-26T06:20:56.982Z,101499.69
2022-08-26T06:23:41.166Z,101492.59
2022-08-26T06:26:11.169Z,101485.41
2022-08-26T06:28:45.370Z,101494.34
2022-08-26T06:31:15.999Z,101497.03
2022-08-26T06:33:46.287Z,101492.56
2022-08-26T06:36:20.776Z,101487.22
2022-08-26T06:38:51.906Z,101484.56
2022-08-26T06:41:23.853Z,101482.78
2022-08-26T06:43:57.530Z,101475.66
2022-08-26T06:46:27.381Z,101472.97
2022-08-26T06:48:58.351Z,101477.44
2022-08-26T06:51:30.251Z,101481.91
2022-08-26T06:54:02.328Z,101479.22
2022-08-26T06:56:38.159Z,101510.41
2022-08-26T06:59:11.616Z,101512.19
2022-08-26T07:01:45.662Z,101510.44
2022-08-26T07:04:22.019Z,101520.25
2022-08-26T07:06:53.680Z,101522.00
2022-08-26T07:09:25.503Z,101514.00
2022-08-26T07:11:56.667Z,101513.97
2022-08-26T07:14:29.408Z,101511.28
2022-08-26T07:17:02.735Z,101514.88
2022-08-26T07:19:32.492Z,101510.38
2022-08-26T07:22:04.228Z,101522.00
2022-08-26T07:24:35.059Z,101526.47
2022-08-26T07:27:07.352Z,101531.81
2022-08-26T07:29:42.580Z,101537.19
2022-08-26T07:32:13.552Z,101542.53
2022-08-26T07:34:44.779Z,101549.69
2022-08-26T07:37:14.797Z,101551.47
2022-08-26T07:39:45.319Z,101542.53
2022-08-26T07:42:17.014Z,101543.44
2022-08-26T07:44:51.509Z,101539.88
2022-08-26T07:47:25.640Z,101546.13
2022-08-26T07:49:57.986Z,101553.28
2022-08-26T07:52:29.523Z,101555.03
2022-08-26T07:55:00.986Z,101553.28
2022-08-26T07:57:31.640Z,101563.97
2022-08-26T08:00:04.220Z,101551.47
2022-08-26T08:02:34.071Z,101555.94
2022-08-26T08:05:04.516Z,101563.09
2022-08-26T08:07:44.501Z,101565.78
2022-08-26T08:10:17.065Z,101570.22
2022-08-26T08:12:47.573Z,101571.13
2022-08-26T08:15:21.267Z,101566.66
2022-08-26T08:17:51.583Z,101569.34
2022-08-26T08:20:22.325Z,101570.22
2022-08-26T08:22:53.914Z,101574.72
2022-08-26T08:25:24.099Z,101573.78
2022-08-26T08:27:54.172Z,101580.06
2022-08-26T08:30:27.688Z,101578.28
2022-08-26T08:32:57.981Z,101577.34
2022-08-26T08:35:27.864Z,101592.53
2022-08-26T08:37:59.773Z,101590.78
2022-08-26T08:40:31.428Z,101583.63
2022-08-26T08:43:05.343Z,101592.53
2022-08-26T08:45:42.044Z,101592.53
2022-08-26T08:48:18.917Z,101588.94
2022-08-26T08:50:51.976Z,101595.22
2022-08-26T08:53:25.237Z,101590.75
2022-08-26T08:56:03.969Z,101584.50
2022-08-26T08:58:48.700Z,101583.59
2022-08-26T09:01:31.020Z,101575.59
2022-08-26T09:04:20.505Z,101569.34
2022-08-26T09:06:53.065Z,101577.38
2022-08-26T09:09:31.171Z,101578.28
2022-08-26T09:12:01.624Z,101580.94
2022-08-26T09:14:31.474Z,101581.81
2022-08-26T09:17:12.241Z,101579.16
2022-08-26T09:19:45.929Z,101578.22
2022-08-26T09:22:32.334Z,101583.59
2022-08-26T09:25:02.576Z,101581.78
2022-08-26T09:27:44.952Z,101588.06
2022-08-26T09:30:18.197Z,101589.84
2022-08-26T09:33:01.216Z,101590.75
2022-08-26T09:35:34.017Z,101601.47
2022-08-26T09:38:06.155Z,101600.56
2022-08-26T09:40:40.206Z,101598.78
2022-08-26T09:43:22.015Z,101594.34
2022-08-26T09:45:59.284Z,101603.25
2022-08-26T09:48:36.602Z,101597.00
2022-08-26T09:51:08.948Z,101597.88
2022-08-26T09:53:53.038Z,101596.09
2022-08-26T09:56:30.088Z,101601.47
2022-08-26T09:59:01.154Z,101598.78
2022-08-26T10:01:38.338Z,101606.81
2022-08-26T10:04:14.989Z,101602.38
2022-08-26T10:06:57.034Z,101614.84
2022-08-26T10:09:28.761Z,101613.09
2022-08-26T10:12:03.507Z,101617.50
2022-08-26T10:14:40.045Z,101615.75
2022-08-26T10:17:14.248Z,101615.72
2022-08-26T10:19:56.924Z,101610.38
2022-08-26T10:22:34.404Z,101619.31
2022-08-26T10:25:09.600Z,101614.84
2022-08-26T10:27:52.750Z,101619.31
2022-08-26T10:30:25.515Z,101613.97
2022-08-26T10:32:58.519Z,101616.63
2022-08-26T10:35:33.662Z,101617.53
2022-08-26T10:38:06.442Z,101622.88
2022-08-26T10:40:49.143Z,101625.56
2022-08-26T10:43:25.693Z,101618.41
2022-08-26T10:46:00.737Z,101624.66
2022-08-26T10:48:38.501Z,101616.63
2022-08-26T10:51:13.159Z,101616.63
2022-08-26T10:53:51.891Z,101628.22
2022-08-26T10:56:39.880Z,101627.34
2022-08-26T10:59:16.417Z,101630.00
2022-08-26T11:01:52.719Z,101637.16
2022-08-26T11:04:48.114Z,101630.00
2022-08-26T11:07:42.283Z,101645.19
2022-08-26T11:10:28.273Z,101647.84
2022-08-26T11:13:00.870Z,101641.59
2022-08-26T11:16:10.317Z,101651.41
2022-08-26T11:18:51.329Z,101647.81
2022-08-26T11:21:52.162Z,101651.34
2022-08-26T11:24:49.604Z,101641.53
2022-08-26T11:28:03.989Z,101643.31
2022-08-26T11:30:57.017Z,101634.38
2022-08-26T11:33:50.850Z,101629.00
2022-08-26T11:36:39.960Z,101621.88
2022-08-26T11:39:20.508Z,101636.13
2022-08-26T11:42:00.209Z,101629.88
2022-08-26T11:44:38.976Z,101634.34
2022-08-26T11:47:11.788Z,101637.91
2022-08-26T11:49:42.073Z,101637.06
2022-08-26T11:52:23.303Z,101639.72
2022-08-26T11:55:09.704Z,101636.16
2022-08-26T11:57:47.564Z,101642.41
2022-08-26T12:00:22.908Z,101639.72
2022-08-26T12:02:55.745Z,101631.69
2022-08-26T12:05:31.366Z,101637.94
2022-08-26T12:08:08.733Z,101630.81
2022-08-26T12:10:40.285Z,101628.13
2022-08-26T12:13:23.682Z,101621.00
2022-08-26T12:15:58.111Z,101608.50
2022-08-26T12:18:36.490Z,101612.06
2022-08-26T12:21:16.236Z,101620.09
2022-08-26T12:23:50.090Z,101621.00
2022-08-26T12:26:26.324Z,101622.78
2022-08-26T12:29:02.833Z,101624.56
2022-08-26T12:31:48.043Z,101629.94
2022-08-26T12:34:19.811Z,101627.25
2022-08-26T12:36:53.130Z,101628.13
2022-08-26T12:39:29.460Z,101627.22
2022-08-26T12:42:00.743Z,101630.78
2022-08-26T12:44:53.166Z,101637.00
2022-08-26T12:47:41.897Z,101641.44
2022-08-26T12:50:20.809Z,101635.19
2022-08-26T12:53:01.163Z,101631.66
2022-08-26T12:55:40.927Z,101642.34
2022-08-26T12:58:30.337Z,101650.34
2022-08-26T13:01:23.723Z,101651.25
2022-08-26T13:03:53.737Z,101649.47
2022-08-26T13:06:32.893Z,101644.13
2022-08-26T13:09:06.025Z,101653.00
2022-08-26T13:11:38.297Z,101658.38
2022-08-26T13:14:10.417Z,101659.28
2022-08-26T13:16:43.972Z,101669.09
2022-08-26T13:19:17.300Z,101654.81
2022-08-26T13:21:50.622Z,101655.72
2022-08-26T13:24:24.502Z,101656.59
2022-08-26T13:26:54.392Z,101656.59
2022-08-26T13:29:24.152Z,101654.81
2022-08-26T13:31:58.641Z,101641.44
2022-08-26T13:34:28.672Z,101639.66
2022-08-26T13:36:59.512Z,101628.06
2022-08-26T13:39:29.803Z,101625.38
2022-08-26T13:42:00.388Z,101628.06
2022-08-26T13:44:30.426Z,101625.38
2022-08-26T13:47:02.795Z,101628.06
2022-08-26T13:49:32.597Z,101612.00
2022-08-26T13:52:03.806Z,101616.47
2022-08-26T13:54:33.588Z,101613.75
2022-08-26T13:57:03.407Z,101613.75
2022-08-26T13:59:33.200Z,101606.63
2022-08-26T14:02:05.722Z,101611.09
2022-08-26T14:04:35.754Z,101607.50
2022-08-26T14:07:05.546Z,101603.06
2022-08-26T14:09:38.292Z,101603.03
2022-08-26T14:12:08.777Z,101591.44
2022-08-26T14:14:38.548Z,101603.03
2022-08-26T14:17:11.028Z,101597.66
2022-08-26T14:19:41.364Z,101596.78
2022-08-26T14:22:11.157Z,101597.66
2022-08-26T14:24:40.954Z,101596.78
2022-08-26T14:27:10.739Z,101595.91
2022-08-26T14:29:40.583Z,101599.47
2022-08-26T14:32:17.011Z,101609.28
2022-08-26T14:34:50.815Z,101605.72
2022-08-26T14:37:20.992Z,101612.84
2022-08-26T14:39:51.299Z,101607.47
2022-08-26T14:42:24.727Z,101607.50
2022-08-26T14:44:58.039Z,101608.38
2022-08-26T14:47:30.855Z,101630.66
2022-08-26T14:50:00.672Z,101619.09
2022-08-26T14:52:50.467Z,101613.75
2022-08-26T14:55:17.785Z,101620.88
2022-08-26T14:57:47.595Z,101620.88
2022-08-26T15:00:18.842Z,101618.22
2022-08-26T15:02:51.839Z,101608.41
2022-08-26T15:05:22.043Z,101609.28
2022-08-26T15:07:51.892Z,101615.53
2022-08-26T15:10:21.991Z,101611.97
2022-08-26T15:12:51.806Z,101612.88
2022-08-26T15:15:21.991Z,101619.13
2022-08-26T15:17:54.410Z,101611.97
2022-08-26T15:20:24.309Z,101616.44
2022-08-26T15:22:54.097Z,101618.22
2022-08-26T15:25:24.583Z,101620.88
2022-08-26T15:27:54.374Z,101628.03
2022-08-26T15:30:24.190Z,101642.31
2022-08-26T15:32:56.644Z,101632.50
2022-08-26T15:35:26.383Z,101624.44
2022-08-26T15:37:56.386Z,101633.38
2022-08-26T15:40:28.194Z,101628.00
2022-08-26T15:43:17.790Z,101630.69
2022-08-26T15:45:47.892Z,101632.47
2022-08-26T15:48:20.606Z,101630.66
2022-08-26T15:50:54.239Z,101624.41
2022-08-26T15:53:24.344Z,101628.88
2022-08-26T15:55:56.747Z,101619.06
2022-08-26T15:58:28.816Z,101636.00
2022-08-26T16:01:00.108Z,101632.44
2022-08-26T16:03:32.610Z,101632.47
2022-08-26T16:06:02.890Z,101635.13
2022-08-26T16:08:36.450Z,101634.22
2022-08-26T16:11:07.370Z,101616.38
2022-08-26T16:13:39.756Z,101613.72
2022-08-26T16:16:10.798Z,101627.06
2022-08-26T16:18:43.337Z,101627.97
2022-08-26T16:21:18.191Z,101635.09
2022-08-26T16:23:48.450Z,101617.31
2022-08-26T16:26:21.663Z,101620.84
2022-08-26T16:28:51.794Z,101619.97
2022-08-26T16:31:22.393Z,101625.28
2022-08-26T16:33:54.838Z,101627.97
2022-08-26T16:36:24.605Z,101623.50
2022-08-26T16:38:56.631Z,101626.16
2022-08-26T16:41:27.934Z,101626.13
2022-08-26T16:43:58.501Z,101625.22
2022-08-26T16:46:28.739Z,101626.13
2022-08-26T16:49:04.117Z,101622.56
2022-08-26T16:51:38.033Z,101630.59
2022-08-26T16:54:10.254Z,101623.47
2022-08-26T16:56:40.677Z,101627.03
2022-08-26T16:59:13.664Z,101644.00
2022-08-26T17:01:43.465Z,101643.06
2022-08-26T17:04:15.862Z,101641.31
2022-08-26T17:06:45.644Z,101645.75
2022-08-26T17:09:15.472Z,101645.75
2022-08-26T17:11:45.936Z,101648.41
2022-08-26T17:14:16.115Z,101646.66
2022-08-26T17:16:51.274Z,101643.97
2022-08-26T17:19:24.392Z,101644.84
2022-08-26T17:21:54.204Z,101645.72
2022-08-26T17:24:23.939Z,101634.06
2022-08-26T17:26:55.723Z,101649.19
2022-08-26T17:29:25.680Z,101660.75
2022-08-26T17:31:55.475Z,101654.53
2022-08-26T17:34:28.425Z,101660.78
2022-08-26T17:36:58.255Z,101655.41
2022-08-26T17:39:28.156Z,101666.13
2022-08-26T17:41:57.892Z,101659.88
2022-08-26T17:44:27.718Z,101668.75
2022-08-26T17:46:57.555Z,101680.34
2022-08-26T17:49:30.234Z,101677.63
2022-08-26T17:52:01.472Z,101679.41
2022-08-26T17:54:31.364Z,101677.63
2022-08-26T17:57:01.668Z,101673.16
2022-08-26T17:59:31.435Z,101674.91
2022-08-26T18:02:01.787Z,101676.66
2022-08-26T18:04:34.419Z,101684.66
2022-08-26T18:07:04.133Z,101684.66
2022-08-26T18:09:34.484Z,101681.09
2022-08-26T18:12:04.224Z,101685.56
2022-08-26T18:14:35.436Z,101686.41
2022-08-26T18:17:05.659Z,101690.84
2022-08-26T18:19:37.995Z,101695.25
2022-08-26T18:22:08.053Z,101684.56
2022-08-26T18:24:37.771Z,101696.09
2022-08-26T18:27:08.197Z,101703.25
2022-08-26T18:29:37.946Z,101705.00
2022-08-26T18:32:15.307Z,101707.66
2022-08-26T18:34:47.642Z,101717.44
2022-08-26T18:37:17.548Z,101719.22
2022-08-26T18:39:47.344Z,101712.09
2022-08-26T18:42:17.354Z,101718.34
2022-08-26T18:44:48.593Z,101710.28
2022-08-26T18:47:18.317Z,101714.75
2022-08-26T18:49:51.352Z,101712.94
2022-08-26T18:52:21.173Z,101708.53
2022-08-26T18:54:53.479Z,101710.28
2022-08-26T18:57:23.230Z,101707.59
2022-08-26T18:59:52.944Z,101709.38
2022-08-26T19:02:22.756Z,101707.59
2022-08-26T19:04:55.206Z,101702.25
2022-08-26T19:07:24.905Z,101708.44
2022-08-26T19:09:54.623Z,101704.00
2022-08-26T19:12:26.966Z,101717.34
2022-08-26T19:14:56.819Z,101714.69
2022-08-26T19:17:27.005Z,101712.00
2022-08-26T19:19:59.416Z,101711.97
2022-08-26T19:22:29.181Z,101706.63
2022-08-26T19:24:58.932Z,101705.72
2022-08-26T19:27:28.657Z,101711.94
2022-08-26T19:29:59.142Z,101704.78
2022-08-26T19:32:28.923Z,101705.66
2022-08-26T19:35:01.291Z,101693.19
2022-08-26T19:37:31.114Z,101700.28
2022-08-26T19:40:00.938Z,101703.84
2022-08-26T19:42:30.777Z,101702.06
2022-08-26T19:45:24.711Z,101695.81
2022-08-26T19:47:55.817Z,101710.00
2022-08-26T19:50:29.617Z,101709.13
2022-08-26T19:53:00.029Z,101708.22
2022-08-26T19:55:30.473Z,101707.31
2022-08-26T19:58:00.517Z,101715.31
2022-08-26T20:00:32.122Z,101707.31
2022-08-26T20:03:03.040Z,101704.56
2022-08-26T20:05:35.526Z,101708.16
2022-08-26T20:08:05.814Z,101707.22
2022-08-26T20:10:35.980Z,101716.13
2022-08-26T20:13:05.709Z,101714.31
2022-08-26T20:15:38.467Z,101716.03
2022-08-26T20:18:29.019Z,101714.31
2022-08-26T20:21:13.915Z,101701.84
2022-08-26T20:23:43.849Z,101700.94
2022-08-26T20:26:13.649Z,101700.03
2022-08-26T20:28:43.411Z,101702.72
2022-08-26T20:31:13.422Z,101706.28
2022-08-26T20:33:46.601Z,101702.69
2022-08-26T20:36:20.421Z,101704.44
2022-08-26T20:38:50.497Z,101708.88
2022-08-26T20:41:21.078Z,101697.28
2022-08-26T20:43:50.896Z,101697.28
2022-08-26T20:46:24.532Z,101697.22
2022-08-26T20:48:55.422Z,101700.75
2022-08-26T20:51:31.300Z,101690.06
2022-08-26T20:54:01.595Z,101691.84
2022-08-26T20:56:31.363Z,101685.56
2022-08-26T20:59:03.594Z,101684.66
2022-08-26T21:01:37.031Z,101687.31
2022-08-26T21:04:14.647Z,101690.84
2022-08-26T21:06:52.362Z,101691.72
2022-08-26T21:09:24.103Z,101697.94
2022-08-26T21:11:54.831Z,101683.69
2022-08-26T21:14:26.008Z,101689.94
2022-08-26T21:16:56.267Z,101692.63
2022-08-26T21:19:26.095Z,101693.50
2022-08-26T21:21:59.087Z,101689.03
2022-08-26T21:24:28.894Z,101688.16
2022-08-26T21:26:58.677Z,101694.34
2022-08-26T21:29:28.486Z,101694.34
2022-08-26T21:31:58.334Z,101697.84
2022-08-26T21:34:28.214Z,101699.63
2022-08-26T21:37:00.741Z,101701.41
2022-08-26T21:39:30.745Z,101696.97
2022-08-26T21:42:09.631Z,101702.28
2022-08-26T21:44:39.445Z,101696.00
2022-08-26T21:47:09.616Z,101700.41
2022-08-26T21:49:40.605Z,101697.78
2022-08-26T21:52:13.547Z,101692.44
2022-08-26T21:54:49.251Z,101698.63
2022-08-26T21:57:19.518Z,101695.91
2022-08-26T21:59:49.324Z,101695.91
2022-08-26T22:02:19.122Z,101697.72
2022-08-26T22:04:49.804Z,101701.28
2022-08-26T22:07:22.268Z,101696.88
2022-08-26T22:09:52.015Z,101703.97
2022-08-26T22:12:21.784Z,101703.94
2022-08-26T22:14:51.519Z,101703.06
2022-08-26T22:17:22.622Z,101706.56
2022-08-26T22:19:52.347Z,101706.50
2022-08-26T22:22:24.827Z,101706.50
2022-08-26T22:24:54.733Z,101710.94
2022-08-26T22:27:24.506Z,101710.91
2022-08-26T22:29:54.272Z,101709.09
2022-08-26T22:32:24.012Z,101712.66
2022-08-26T22:34:53.772Z,101709.97
2022-08-26T22:37:26.178Z,101710.81
2022-08-26T22:39:56.097Z,101708.09
2022-08-26T22:42:25.865Z,101714.31
2022-08-26T22:44:55.668Z,101713.38
2022-08-26T22:47:25.511Z,101713.41
2022-08-26T22:49:55.313Z,101716.06
2022-08-26T22:52:27.798Z,101708.91
2022-08-26T22:54:57.657Z,101703.53
2022-08-26T22:57:27.942Z,101711.53
2022-08-26T22:59:57.716Z,101715.94
2022-08-26T23:02:27.487Z,101720.34
2022-08-26T23:04:57.291Z,101716.75
2022-08-26T23:07:29.654Z,101712.31
2022-08-26T23:09:59.391Z,101716.75
2022-08-26T23:12:29.321Z,101712.28
2022-08-26T23:14:59.079Z,101714.91
2022-08-26T23:17:28.831Z,101708.69
2022-08-26T23:19:58.596Z,101714.03
2022-08-26T23:22:31.529Z,101711.31
2022-08-26T23:25:06.800Z,101705.06
2022-08-26T23:27:38.262Z,101708.66
2022-08-26T23:30:10.337Z,101711.31
2022-08-26T23:32:40.121Z,101709.50
2022-08-26T23:35:09.608Z,101712.19
2022-08-26T23:37:48.486Z,101704.19
2022-08-26T23:40:23.285Z,101712.19
2022-08-26T23:42:53.247Z,101702.38
2022-08-26T23:45:24.512Z,101707.69
2022-08-26T23:47:54.797Z,101700.59
2022-08-26T23:50:48.805Z,101698.84
2022-08-26T23:53:20.603Z,101696.19
2022-08-26T23:55:51.542Z,101689.94
2022-08-26T23:58:23.275Z,101692.56
